sensor_id;sensor_type;location;lat;lon;timestamp;temperature;humidity
45765;DHT22;31474;45.332;10.230;2023-04-05T00:00:44;8.30;84.00
45765;DHT22;31474;45.332;10.230;2023-04-05T00:03:10;8.20;84.00
45765;DHT22;31474;45.332;10.230;2023-04-05T00:05:36;8.20;84.10
45765;DHT22;31474;45.332;10.230;2023-04-05T00:08:03;8.00;84.30
45765;DHT22;31474;45.332;10.230;2023-04-05T00:10:32;8.00;84.40
45765;DHT22;31474;45.332;10.230;2023-04-05T00:12:58;7.90;84.40
45765;DHT22;31474;45.332;10.230;2023-04-05T00:15:24;8.00;84.60
45765;DHT22;31474;45.332;10.230;2023-04-05T00:17:51;7.90;84.80
45765;DHT22;31474;45.332;10.230;2023-04-05T00:20:18;7.90;84.80
45765;DHT22;31474;45.332;10.230;2023-04-05T00:22:44;7.80;85.10
45765;DHT22;31474;45.332;10.230;2023-04-05T00:25:11;7.80;85.10
45765;DHT22;31474;45.332;10.230;2023-04-05T00:27:38;7.80;85.30
45765;DHT22;31474;45.332;10.230;2023-04-05T00:30:04;7.80;85.20
45765;DHT22;31474;45.332;10.230;2023-04-05T00:32:30;7.80;85.20
45765;DHT22;31474;45.332;10.230;2023-04-05T00:34:55;7.80;85.20
45765;DHT22;31474;45.332;10.230;2023-04-05T00:37:21;7.80;85.10
45765;DHT22;31474;45.332;10.230;2023-04-05T00:39:47;7.80;85.30
45765;DHT22;31474;45.332;10.230;2023-04-05T00:42:13;7.80;85.20
45765;DHT22;31474;45.332;10.230;2023-04-05T00:44:39;7.90;85.10
45765;DHT22;31474;45.332;10.230;2023-04-05T00:47:05;7.90;85.20
45765;DHT22;31474;45.332;10.230;2023-04-05T00:49:33;7.80;85.20
45765;DHT22;31474;45.332;10.230;2023-04-05T00:51:59;7.80;85.10
45765;DHT22;31474;45.332;10.230;2023-04-05T00:54:26;7.80;85.20
45765;DHT22;31474;45.332;10.230;2023-04-05T00:56:55;7.80;85.20
45765;DHT22;31474;45.332;10.230;2023-04-05T00:59:21;7.70;85.40
45765;DHT22;31474;45.332;10.230;2023-04-05T01:01:51;7.70;85.40
45765;DHT22;31474;45.332;10.230;2023-04-05T01:04:27;7.80;85.60
45765;DHT22;31474;45.332;10.230;2023-04-05T01:07:16;7.80;85.60
45765;DHT22;31474;45.332;10.230;2023-04-05T01:10:00;7.90;86.20
45765;DHT22;31474;45.332;10.230;2023-04-05T01:12:31;7.90;86.00
45765;DHT22;31474;45.332;10.230;2023-04-05T01:14:59;7.90;86.00
45765;DHT22;31474;45.332;10.230;2023-04-05T01:17:28;7.90;86.10
45765;DHT22;31474;45.332;10.230;2023-04-05T01:19:59;7.80;85.90
45765;DHT22;31474;45.332;10.230;2023-04-05T01:22:56;7.80;85.90
45765;DHT22;31474;45.332;10.230;2023-04-05T01:31:09;7.80;86.10
45765;DHT22;31474;45.332;10.230;2023-04-05T01:33:48;7.80;86.10
45765;DHT22;31474;45.332;10.230;2023-04-05T01:36:39;7.80;86.10
45765;DHT22;31474;45.332;10.230;2023-04-05T01:39:08;7.90;87.00
45765;DHT22;31474;45.332;10.230;2023-04-05T01:41:38;8.00;86.30
45765;DHT22;31474;45.332;10.230;2023-04-05T01:44:04;8.00;86.10
45765;DHT22;31474;45.332;10.230;2023-04-05T01:46:30;8.00;86.00
45765;DHT22;31474;45.332;10.230;2023-04-05T01:48:55;7.90;85.80
45765;DHT22;31474;45.332;10.230;2023-04-05T01:51:21;7.90;86.00
45765;DHT22;31474;45.332;10.230;2023-04-05T01:53:47;7.80;86.30
45765;DHT22;31474;45.332;10.230;2023-04-05T01:56:12;7.80;86.50
45765;DHT22;31474;45.332;10.230;2023-04-05T01:58:38;7.80;86.50
45765;DHT22;31474;45.332;10.230;2023-04-05T02:01:04;7.80;86.60
45765;DHT22;31474;45.332;10.230;2023-04-05T02:03:29;7.90;86.40
45765;DHT22;31474;45.332;10.230;2023-04-05T02:05:56;7.90;85.90
45765;DHT22;31474;45.332;10.230;2023-04-05T02:08:22;7.80;86.20
45765;DHT22;31474;45.332;10.230;2023-04-05T02:10:48;7.80;86.10
45765;DHT22;31474;45.332;10.230;2023-04-05T02:13:13;7.90;87.10
45765;DHT22;31474;45.332;10.230;2023-04-05T02:15:39;7.90;86.10
45765;DHT22;31474;45.332;10.230;2023-04-05T02:18:05;7.90;85.30
45765;DHT22;31474;45.332;10.230;2023-04-05T02:20:32;7.80;85.70
45765;DHT22;31474;45.332;10.230;2023-04-05T02:22:59;7.80;85.80
45765;DHT22;31474;45.332;10.230;2023-04-05T02:25:25;7.60;85.90
45765;DHT22;31474;45.332;10.230;2023-04-05T02:27:51;7.60;85.70
45765;DHT22;31474;45.332;10.230;2023-04-05T02:30:16;7.60;85.80
45765;DHT22;31474;45.332;10.230;2023-04-05T02:32:42;7.60;85.60
45765;DHT22;31474;45.332;10.230;2023-04-05T02:35:09;7.60;85.80
45765;DHT22;31474;45.332;10.230;2023-04-05T02:37:35;7.50;85.80
45765;DHT22;31474;45.332;10.230;2023-04-05T02:40:02;7.50;86.00
45765;DHT22;31474;45.332;10.230;2023-04-05T02:42:30;7.50;86.70
45765;DHT22;31474;45.332;10.230;2023-04-05T02:44:55;7.50;86.70
45765;DHT22;31474;45.332;10.230;2023-04-05T02:47:21;7.60;87.10
45765;DHT22;31474;45.332;10.230;2023-04-05T02:49:47;7.60;86.70
45765;DHT22;31474;45.332;10.230;2023-04-05T02:52:13;7.50;86.40
45765;DHT22;31474;45.332;10.230;2023-04-05T02:54:39;7.50;86.20
45765;DHT22;31474;45.332;10.230;2023-04-05T02:57:05;7.60;86.00
45765;DHT22;31474;45.332;10.230;2023-04-05T02:59:35;7.70;85.50
45765;DHT22;31474;45.332;10.230;2023-04-05T03:02:01;7.70;85.20
45765;DHT22;31474;45.332;10.230;2023-04-05T03:04:27;7.70;85.40
45765;DHT22;31474;45.332;10.230;2023-04-05T03:06:52;7.70;85.50
45765;DHT22;31474;45.332;10.230;2023-04-05T03:09:20;7.60;85.60
45765;DHT22;31474;45.332;10.230;2023-04-05T03:11:45;7.60;85.80
45765;DHT22;31474;45.332;10.230;2023-04-05T03:14:11;7.60;85.80
45765;DHT22;31474;45.332;10.230;2023-04-05T03:16:37;7.60;86.10
45765;DHT22;31474;45.332;10.230;2023-04-05T03:19:05;7.50;86.60
45765;DHT22;31474;45.332;10.230;2023-04-05T03:21:32;7.30;87.20
45765;DHT22;31474;45.332;10.230;2023-04-05T03:23:58;7.20;87.70
45765;DHT22;31474;45.332;10.230;2023-04-05T03:26:24;7.20;88.20
45765;DHT22;31474;45.332;10.230;2023-04-05T03:28:50;7.20;87.70
45765;DHT22;31474;45.332;10.230;2023-04-05T03:31:16;7.20;87.70
45765;DHT22;31474;45.332;10.230;2023-04-05T03:33:42;7.10;87.40
45765;DHT22;31474;45.332;10.230;2023-04-05T03:36:07;7.20;87.60
45765;DHT22;31474;45.332;10.230;2023-04-05T03:38:33;7.20;87.40
45765;DHT22;31474;45.332;10.230;2023-04-05T03:41:03;7.20;87.30
45765;DHT22;31474;45.332;10.230;2023-04-05T03:43:29;7.20;87.00
45765;DHT22;31474;45.332;10.230;2023-04-05T03:45:55;7.20;86.90
45765;DHT22;31474;45.332;10.230;2023-04-05T03:48:21;7.30;86.60
45765;DHT22;31474;45.332;10.230;2023-04-05T03:50:47;7.20;86.50
45765;DHT22;31474;45.332;10.230;2023-04-05T03:53:12;7.20;86.40
45765;DHT22;31474;45.332;10.230;2023-04-05T03:55:38;7.10;86.60
45765;DHT22;31474;45.332;10.230;2023-04-05T03:58:14;7.00;87.00
45765;DHT22;31474;45.332;10.230;2023-04-05T04:00:40;6.90;86.90
45765;DHT22;31474;45.332;10.230;2023-04-05T04:03:06;6.90;87.00
45765;DHT22;31474;45.332;10.230;2023-04-05T04:05:32;6.90;87.20
45765;DHT22;31474;45.332;10.230;2023-04-05T04:08:04;6.90;87.10
45765;DHT22;31474;45.332;10.230;2023-04-05T04:10:30;6.90;86.90
45765;DHT22;31474;45.332;10.230;2023-04-05T04:12:56;6.90;87.20
45765;DHT22;31474;45.332;10.230;2023-04-05T04:15:21;7.00;87.40
45765;DHT22;31474;45.332;10.230;2023-04-05T04:17:47;7.00;87.70
45765;DHT22;31474;45.332;10.230;2023-04-05T04:20:13;7.10;87.60
45765;DHT22;31474;45.332;10.230;2023-04-05T04:22:39;7.10;87.30
45765;DHT22;31474;45.332;10.230;2023-04-05T04:25:06;7.00;87.50
45765;DHT22;31474;45.332;10.230;2023-04-05T04:27:36;7.00;86.90
45765;DHT22;31474;45.332;10.230;2023-04-05T04:30:10;6.90;86.80
45765;DHT22;31474;45.332;10.230;2023-04-05T04:32:37;7.00;86.70
45765;DHT22;31474;45.332;10.230;2023-04-05T04:35:16;6.90;86.80
45765;DHT22;31474;45.332;10.230;2023-04-05T04:37:46;6.80;86.40
45765;DHT22;31474;45.332;10.230;2023-04-05T04:40:13;6.90;86.30
45765;DHT22;31474;45.332;10.230;2023-04-05T04:42:40;6.90;86.70
45765;DHT22;31474;45.332;10.230;2023-04-05T04:45:09;6.90;87.90
45765;DHT22;31474;45.332;10.230;2023-04-05T04:47:36;6.90;88.20
45765;DHT22;31474;45.332;10.230;2023-04-05T04:50:02;6.90;88.10
45765;DHT22;31474;45.332;10.230;2023-04-05T04:52:29;6.90;87.70
45765;DHT22;31474;45.332;10.230;2023-04-05T04:54:54;7.00;87.30
45765;DHT22;31474;45.332;10.230;2023-04-05T04:57:20;7.00;87.20
45765;DHT22;31474;45.332;10.230;2023-04-05T04:59:46;7.00;87.90
45765;DHT22;31474;45.332;10.230;2023-04-05T05:02:11;7.00;88.10
45765;DHT22;31474;45.332;10.230;2023-04-05T05:04:37;6.90;88.10
45765;DHT22;31474;45.332;10.230;2023-04-05T05:07:05;6.90;88.40
45765;DHT22;31474;45.332;10.230;2023-04-05T05:09:31;6.90;88.00
45765;DHT22;31474;45.332;10.230;2023-04-05T05:11:57;6.90;88.30
45765;DHT22;31474;45.332;10.230;2023-04-05T05:14:25;6.90;88.40
45765;DHT22;31474;45.332;10.230;2023-04-05T05:16:51;6.80;88.60
45765;DHT22;31474;45.332;10.230;2023-04-05T05:19:19;6.80;88.20
45765;DHT22;31474;45.332;10.230;2023-04-05T05:21:45;6.80;88.30
45765;DHT22;31474;45.332;10.230;2023-04-05T05:24:12;6.90;88.50
45765;DHT22;31474;45.332;10.230;2023-04-05T05:26:38;7.00;89.00
45765;DHT22;31474;45.332;10.230;2023-04-05T05:29:04;6.90;89.00
45765;DHT22;31474;45.332;10.230;2023-04-05T05:31:30;6.90;89.50
45765;DHT22;31474;45.332;10.230;2023-04-05T05:33:57;6.90;89.10
45765;DHT22;31474;45.332;10.230;2023-04-05T05:36:22;6.90;89.00
45765;DHT22;31474;45.332;10.230;2023-04-05T05:38:50;7.00;88.60
45765;DHT22;31474;45.332;10.230;2023-04-05T05:41:17;7.10;88.50
45765;DHT22;31474;45.332;10.230;2023-04-05T05:43:42;7.00;88.10
45765;DHT22;31474;45.332;10.230;2023-04-05T05:46:08;7.00;88.30
45765;DHT22;31474;45.332;10.230;2023-04-05T05:48:34;7.00;88.60
45765;DHT22;31474;45.332;10.230;2023-04-05T05:51:00;7.10;88.80
45765;DHT22;31474;45.332;10.230;2023-04-05T05:53:26;7.10;88.50
45765;DHT22;31474;45.332;10.230;2023-04-05T05:55:52;7.20;88.50
45765;DHT22;31474;45.332;10.230;2023-04-05T05:58:18;7.20;88.70
45765;DHT22;31474;45.332;10.230;2023-04-05T06:00:43;7.30;88.60
45765;DHT22;31474;45.332;10.230;2023-04-05T06:03:09;7.40;88.50
45765;DHT22;31474;45.332;10.230;2023-04-05T06:05:35;7.40;88.20
45765;DHT22;31474;45.332;10.230;2023-04-05T06:08:01;7.50;88.20
45765;DHT22;31474;45.332;10.230;2023-04-05T06:10:29;7.50;88.20
45765;DHT22;31474;45.332;10.230;2023-04-05T06:12:54;7.60;88.00
45765;DHT22;31474;45.332;10.230;2023-04-05T06:15:20;7.60;87.60
45765;DHT22;31474;45.332;10.230;2023-04-05T06:17:46;7.80;88.20
45765;DHT22;31474;45.332;10.230;2023-04-05T06:20:11;7.90;88.00
45765;DHT22;31474;45.332;10.230;2023-04-05T06:22:40;8.00;87.80
45765;DHT22;31474;45.332;10.230;2023-04-05T06:25:07;8.10;87.70
45765;DHT22;31474;45.332;10.230;2023-04-05T06:27:33;8.10;88.10
45765;DHT22;31474;45.332;10.230;2023-04-05T06:29:59;8.20;88.70
45765;DHT22;31474;45.332;10.230;2023-04-05T06:32:25;8.30;87.90
45765;DHT22;31474;45.332;10.230;2023-04-05T06:34:50;8.30;87.70
45765;DHT22;31474;45.332;10.230;2023-04-05T06:37:16;8.40;87.50
45765;DHT22;31474;45.332;10.230;2023-04-05T06:39:41;8.60;86.60
45765;DHT22;31474;45.332;10.230;2023-04-05T06:42:07;8.50;86.40
45765;DHT22;31474;45.332;10.230;2023-04-05T06:44:33;8.60;86.30
45765;DHT22;31474;45.332;10.230;2023-04-05T06:46:58;8.60;86.50
45765;DHT22;31474;45.332;10.230;2023-04-05T06:49:24;8.60;86.90
45765;DHT22;31474;45.332;10.230;2023-04-05T06:51:49;8.70;87.00
45765;DHT22;31474;45.332;10.230;2023-04-05T06:54:15;8.90;85.40
45765;DHT22;31474;45.332;10.230;2023-04-05T06:56:41;8.90;86.60
45765;DHT22;31474;45.332;10.230;2023-04-05T06:59:06;9.20;85.20
45765;DHT22;31474;45.332;10.230;2023-04-05T07:01:32;9.40;84.00
45765;DHT22;31474;45.332;10.230;2023-04-05T07:03:58;9.60;84.10
45765;DHT22;31474;45.332;10.230;2023-04-05T07:06:23;9.60;84.30
45765;DHT22;31474;45.332;10.230;2023-04-05T07:08:49;9.70;83.70
45765;DHT22;31474;45.332;10.230;2023-04-05T07:11:15;9.70;83.90
45765;DHT22;31474;45.332;10.230;2023-04-05T07:13:41;9.80;84.20
45765;DHT22;31474;45.332;10.230;2023-04-05T07:16:06;9.80;83.30
45765;DHT22;31474;45.332;10.230;2023-04-05T07:18:32;9.90;83.80
45765;DHT22;31474;45.332;10.230;2023-04-05T07:20:58;10.00;80.60
45765;DHT22;31474;45.332;10.230;2023-04-05T07:23:28;9.80;79.30
45765;DHT22;31474;45.332;10.230;2023-04-05T07:26:01;9.90;81.10
45765;DHT22;31474;45.332;10.230;2023-04-05T07:28:29;10.00;81.00
45765;DHT22;31474;45.332;10.230;2023-04-05T07:30:55;10.10;80.70
45765;DHT22;31474;45.332;10.230;2023-04-05T07:33:21;10.20;81.00
45765;DHT22;31474;45.332;10.230;2023-04-05T07:35:54;10.40;81.00
45765;DHT22;31474;45.332;10.230;2023-04-05T07:38:21;10.40;78.90
45765;DHT22;31474;45.332;10.230;2023-04-05T07:40:48;10.50;79.50
45765;DHT22;31474;45.332;10.230;2023-04-05T07:43:14;10.50;79.10
45765;DHT22;31474;45.332;10.230;2023-04-05T07:45:40;10.30;78.60
45765;DHT22;31474;45.332;10.230;2023-04-05T07:48:05;10.40;80.00
45765;DHT22;31474;45.332;10.230;2023-04-05T07:50:32;10.10;78.00
45765;DHT22;31474;45.332;10.230;2023-04-05T07:52:58;10.40;78.90
45765;DHT22;31474;45.332;10.230;2023-04-05T07:55:24;10.60;78.30
45765;DHT22;31474;45.332;10.230;2023-04-05T07:57:52;10.60;77.60
45765;DHT22;31474;45.332;10.230;2023-04-05T08:00:19;10.60;76.90
45765;DHT22;31474;45.332;10.230;2023-04-05T08:02:45;10.70;77.90
45765;DHT22;31474;45.332;10.230;2023-04-05T08:05:11;10.60;75.30
45765;DHT22;31474;45.332;10.230;2023-04-05T08:07:37;10.60;76.40
45765;DHT22;31474;45.332;10.230;2023-04-05T08:10:03;10.70;76.50
45765;DHT22;31474;45.332;10.230;2023-04-05T08:12:30;10.80;76.40
45765;DHT22;31474;45.332;10.230;2023-04-05T08:14:56;10.80;76.50
45765;DHT22;31474;45.332;10.230;2023-04-05T08:17:22;10.80;76.30
45765;DHT22;31474;45.332;10.230;2023-04-05T08:19:51;11.20;77.30
45765;DHT22;31474;45.332;10.230;2023-04-05T08:22:18;11.30;76.30
45765;DHT22;31474;45.332;10.230;2023-04-05T08:24:43;11.40;76.70
45765;DHT22;31474;45.332;10.230;2023-04-05T08:27:09;11.40;76.20
45765;DHT22;31474;45.332;10.230;2023-04-05T08:29:35;11.20;75.60
45765;DHT22;31474;45.332;10.230;2023-04-05T08:32:01;11.20;75.50
45765;DHT22;31474;45.332;10.230;2023-04-05T08:34:27;11.10;75.30
45765;DHT22;31474;45.332;10.230;2023-04-05T08:36:56;11.30;76.30
45765;DHT22;31474;45.332;10.230;2023-04-05T08:39:21;11.50;74.40
45765;DHT22;31474;45.332;10.230;2023-04-05T08:44:51;11.80;75.00
45765;DHT22;31474;45.332;10.230;2023-04-05T08:47:22;12.00;75.30
45765;DHT22;31474;45.332;10.230;2023-04-05T08:49:48;12.20;74.90
45765;DHT22;31474;45.332;10.230;2023-04-05T08:52:13;12.20;73.90
45765;DHT22;31474;45.332;10.230;2023-04-05T08:54:39;12.20;74.40
45765;DHT22;31474;45.332;10.230;2023-04-05T08:57:06;12.30;74.10
45765;DHT22;31474;45.332;10.230;2023-04-05T08:59:33;12.50;75.70
45765;DHT22;31474;45.332;10.230;2023-04-05T09:02:11;12.70;75.40
45765;DHT22;31474;45.332;10.230;2023-04-05T09:04:42;12.90;72.30
45765;DHT22;31474;45.332;10.230;2023-04-05T09:07:10;12.90;72.00
45765;DHT22;31474;45.332;10.230;2023-04-05T09:09:37;12.80;72.30
45765;DHT22;31474;45.332;10.230;2023-04-05T09:12:04;12.70;72.30
45765;DHT22;31474;45.332;10.230;2023-04-05T09:14:33;12.70;73.20
45765;DHT22;31474;45.332;10.230;2023-04-05T09:17:01;12.80;73.00
45765;DHT22;31474;45.332;10.230;2023-04-05T09:19:27;12.70;72.60
45765;DHT22;31474;45.332;10.230;2023-04-05T09:22:00;12.90;73.20
45765;DHT22;31474;45.332;10.230;2023-04-05T09:27:24;13.10;72.90
45765;DHT22;31474;45.332;10.230;2023-04-05T09:29:50;12.90;71.00
45765;DHT22;31474;45.332;10.230;2023-04-05T09:32:16;12.90;71.20
45765;DHT22;31474;45.332;10.230;2023-04-05T09:34:46;13.00;71.10
45765;DHT22;31474;45.332;10.230;2023-04-05T09:37:13;13.20;73.80
45765;DHT22;31474;45.332;10.230;2023-04-05T09:39:39;13.40;72.60
45765;DHT22;31474;45.332;10.230;2023-04-05T09:42:07;13.50;71.10
45765;DHT22;31474;45.332;10.230;2023-04-05T09:44:56;13.50;70.70
45765;DHT22;31474;45.332;10.230;2023-04-05T09:47:25;13.60;72.20
45765;DHT22;31474;45.332;10.230;2023-04-05T09:49:55;13.60;72.00
45765;DHT22;31474;45.332;10.230;2023-04-05T09:52:29;13.60;72.30
45765;DHT22;31474;45.332;10.230;2023-04-05T09:55:00;13.60;72.00
45765;DHT22;31474;45.332;10.230;2023-04-05T09:57:27;13.60;73.30
45765;DHT22;31474;45.332;10.230;2023-04-05T09:59:57;13.90;72.00
45765;DHT22;31474;45.332;10.230;2023-04-05T10:02:23;14.00;71.00
45765;DHT22;31474;45.332;10.230;2023-04-05T10:04:49;13.90;71.70
45765;DHT22;31474;45.332;10.230;2023-04-05T10:07:17;14.00;71.80
45765;DHT22;31474;45.332;10.230;2023-04-05T10:09:46;14.10;71.10
45765;DHT22;31474;45.332;10.230;2023-04-05T10:12:24;14.00;70.90
45765;DHT22;31474;45.332;10.230;2023-04-05T10:14:51;13.70;71.00
45765;DHT22;31474;45.332;10.230;2023-04-05T10:17:50;13.80;71.80
45765;DHT22;31474;45.332;10.230;2023-04-05T10:20:20;13.80;70.70
45765;DHT22;31474;45.332;10.230;2023-04-05T10:23:12;13.70;72.40
45765;DHT22;31474;45.332;10.230;2023-04-05T10:28:33;13.40;70.70
45765;DHT22;31474;45.332;10.230;2023-04-05T10:31:24;13.50;72.10
45765;DHT22;31474;45.332;10.230;2023-04-05T10:34:00;13.60;70.50
45765;DHT22;31474;45.332;10.230;2023-04-05T10:36:49;13.80;72.30
45765;DHT22;31474;45.332;10.230;2023-04-05T10:39:44;13.80;71.60
45765;DHT22;31474;45.332;10.230;2023-04-05T10:42:19;14.00;70.90
45765;DHT22;31474;45.332;10.230;2023-04-05T10:44:50;14.10;71.80
45765;DHT22;31474;45.332;10.230;2023-04-05T10:47:18;14.00;70.80
45765;DHT22;31474;45.332;10.230;2023-04-05T10:49:48;14.00;70.60
45765;DHT22;31474;45.332;10.230;2023-04-05T10:52:17;14.00;71.00
45765;DHT22;31474;45.332;10.230;2023-04-05T10:54:44;13.70;70.20
45765;DHT22;31474;45.332;10.230;2023-04-05T10:57:10;13.80;71.40
45765;DHT22;31474;45.332;10.230;2023-04-05T10:59:42;13.70;70.90
45765;DHT22;31474;45.332;10.230;2023-04-05T11:02:08;13.90;72.20
45765;DHT22;31474;45.332;10.230;2023-04-05T11:04:35;13.80;72.00
45765;DHT22;31474;45.332;10.230;2023-04-05T11:07:17;13.70;72.80
45765;DHT22;31474;45.332;10.230;2023-04-05T11:10:17;13.60;71.10
45765;DHT22;31474;45.332;10.230;2023-04-05T11:20:43;14.20;72.40
45765;DHT22;31474;45.332;10.230;2023-04-05T11:23:10;14.20;70.60
45765;DHT22;31474;45.332;10.230;2023-04-05T11:25:38;13.90;70.80
45765;DHT22;31474;45.332;10.230;2023-04-05T11:28:07;13.60;71.40
45765;DHT22;31474;45.332;10.230;2023-04-05T11:30:47;13.40;72.70
45765;DHT22;31474;45.332;10.230;2023-04-05T11:33:36;13.00;71.50
45765;DHT22;31474;45.332;10.230;2023-04-05T11:36:02;12.60;70.60
45765;DHT22;31474;45.332;10.230;2023-04-05T11:38:28;12.50;71.80
45765;DHT22;31474;45.332;10.230;2023-04-05T11:41:14;12.50;72.80
45765;DHT22;31474;45.332;10.230;2023-04-05T11:43:48;13.00;72.10
45765;DHT22;31474;45.332;10.230;2023-04-05T11:46:17;13.20;72.10
45765;DHT22;31474;45.332;10.230;2023-04-05T11:48:48;13.30;72.40
45765;DHT22;31474;45.332;10.230;2023-04-05T11:51:15;13.50;72.70
45765;DHT22;31474;45.332;10.230;2023-04-05T11:53:45;13.70;72.40
45765;DHT22;31474;45.332;10.230;2023-04-05T11:56:11;13.70;71.90
45765;DHT22;31474;45.332;10.230;2023-04-05T11:58:40;13.80;72.90
45765;DHT22;31474;45.332;10.230;2023-04-05T12:01:07;13.80;71.80
45765;DHT22;31474;45.332;10.230;2023-04-05T12:03:34;13.90;72.80
45765;DHT22;31474;45.332;10.230;2023-04-05T12:06:02;13.90;70.70
45765;DHT22;31474;45.332;10.230;2023-04-05T12:08:44;13.90;71.50
45765;DHT22;31474;45.332;10.230;2023-04-05T12:11:36;13.90;69.70
45765;DHT22;31474;45.332;10.230;2023-04-05T12:14:05;13.80;71.10
45765;DHT22;31474;45.332;10.230;2023-04-05T12:16:30;13.90;71.40
45765;DHT22;31474;45.332;10.230;2023-04-05T12:18:58;13.90;71.90
45765;DHT22;31474;45.332;10.230;2023-04-05T12:21:25;13.90;71.50
45765;DHT22;31474;45.332;10.230;2023-04-05T12:23:51;14.00;72.20
45765;DHT22;31474;45.332;10.230;2023-04-05T12:26:17;14.00;71.40
45765;DHT22;31474;45.332;10.230;2023-04-05T12:28:57;13.80;70.10
45765;DHT22;31474;45.332;10.230;2023-04-05T12:31:43;13.70;71.60
45765;DHT22;31474;45.332;10.230;2023-04-05T12:34:11;13.70;71.10
45765;DHT22;31474;45.332;10.230;2023-04-05T12:36:37;13.80;71.60
45765;DHT22;31474;45.332;10.230;2023-04-05T12:39:07;13.80;71.50
45765;DHT22;31474;45.332;10.230;2023-04-05T12:41:33;13.80;71.90
45765;DHT22;31474;45.332;10.230;2023-04-05T12:44:52;14.00;72.50
45765;DHT22;31474;45.332;10.230;2023-04-05T12:46:49;14.00;71.60
45765;DHT22;31474;45.332;10.230;2023-04-05T12:49:17;13.90;70.10
45765;DHT22;31474;45.332;10.230;2023-04-05T12:51:44;14.00;71.20
45765;DHT22;31474;45.332;10.230;2023-04-05T12:54:28;14.10;71.70
45765;DHT22;31474;45.332;10.230;2023-04-05T12:56:56;14.10;71.40
45765;DHT22;31474;45.332;10.230;2023-04-05T12:59:22;14.10;70.80
45765;DHT22;31474;45.332;10.230;2023-04-05T13:01:48;13.90;71.10
45765;DHT22;31474;45.332;10.230;2023-04-05T13:04:14;14.00;72.00
45765;DHT22;31474;45.332;10.230;2023-04-05T13:06:39;14.00;71.80
45765;DHT22;31474;45.332;10.230;2023-04-05T13:09:05;13.90;71.80
45765;DHT22;31474;45.332;10.230;2023-04-05T13:11:31;13.80;69.80
45765;DHT22;31474;45.332;10.230;2023-04-05T13:13:56;13.90;71.90
45765;DHT22;31474;45.332;10.230;2023-04-05T13:16:22;13.90;70.70
45765;DHT22;31474;45.332;10.230;2023-04-05T13:18:48;13.90;70.20
45765;DHT22;31474;45.332;10.230;2023-04-05T13:21:13;13.80;70.70
45765;DHT22;31474;45.332;10.230;2023-04-05T13:23:40;13.70;72.00
45765;DHT22;31474;45.332;10.230;2023-04-05T13:26:06;13.70;70.90
45765;DHT22;31474;45.332;10.230;2023-04-05T13:28:32;13.70;70.10
45765;DHT22;31474;45.332;10.230;2023-04-05T13:30:58;13.70;71.30
45765;DHT22;31474;45.332;10.230;2023-04-05T13:33:24;13.70;70.60
45765;DHT22;31474;45.332;10.230;2023-04-05T13:35:50;13.70;70.50
45765;DHT22;31474;45.332;10.230;2023-04-05T13:38:16;13.70;68.30
45765;DHT22;31474;45.332;10.230;2023-04-05T13:40:42;13.70;70.00
45765;DHT22;31474;45.332;10.230;2023-04-05T13:43:07;13.70;70.00
45765;DHT22;31474;45.332;10.230;2023-04-05T13:45:33;13.80;71.00
45765;DHT22;31474;45.332;10.230;2023-04-05T13:47:59;13.90;71.40
45765;DHT22;31474;45.332;10.230;2023-04-05T13:50:27;14.10;70.80
45765;DHT22;31474;45.332;10.230;2023-04-05T13:52:52;14.10;70.10
45765;DHT22;31474;45.332;10.230;2023-04-05T13:55:18;14.20;69.80
45765;DHT22;31474;45.332;10.230;2023-04-05T13:57:44;14.00;71.30
45765;DHT22;31474;45.332;10.230;2023-04-05T14:00:10;13.90;70.20
45765;DHT22;31474;45.332;10.230;2023-04-05T14:02:36;14.00;71.60
45765;DHT22;31474;45.332;10.230;2023-04-05T14:05:01;13.90;69.20
45765;DHT22;31474;45.332;10.230;2023-04-05T14:07:27;13.80;70.80
45765;DHT22;31474;45.332;10.230;2023-04-05T14:09:53;13.80;70.20
45765;DHT22;31474;45.332;10.230;2023-04-05T14:12:18;13.80;70.80
45765;DHT22;31474;45.332;10.230;2023-04-05T14:14:44;14.00;70.40
45765;DHT22;31474;45.332;10.230;2023-04-05T14:17:10;14.00;70.40
45765;DHT22;31474;45.332;10.230;2023-04-05T14:19:39;13.90;69.30
45765;DHT22;31474;45.332;10.230;2023-04-05T14:22:05;13.90;69.80
45765;DHT22;31474;45.332;10.230;2023-04-05T14:24:31;13.80;68.50
45765;DHT22;31474;45.332;10.230;2023-04-05T14:26:57;13.80;71.00
45765;DHT22;31474;45.332;10.230;2023-04-05T14:29:22;14.00;71.20
45765;DHT22;31474;45.332;10.230;2023-04-05T14:31:48;14.10;70.80
45765;DHT22;31474;45.332;10.230;2023-04-05T14:34:14;14.10;70.10
45765;DHT22;31474;45.332;10.230;2023-04-05T14:36:40;14.00;70.20
45765;DHT22;31474;45.332;10.230;2023-04-05T14:39:06;13.90;70.40
45765;DHT22;31474;45.332;10.230;2023-04-05T14:41:32;14.00;70.90
45765;DHT22;31474;45.332;10.230;2023-04-05T14:43:59;14.10;70.20
45765;DHT22;31474;45.332;10.230;2023-04-05T14:46:25;14.00;70.00
45765;DHT22;31474;45.332;10.230;2023-04-05T14:48:50;14.00;70.40
45765;DHT22;31474;45.332;10.230;2023-04-05T14:51:16;14.10;70.80
45765;DHT22;31474;45.332;10.230;2023-04-05T14:53:42;14.00;71.00
45765;DHT22;31474;45.332;10.230;2023-04-05T14:56:07;14.00;71.00
45765;DHT22;31474;45.332;10.230;2023-04-05T14:58:37;13.90;71.40
45765;DHT22;31474;45.332;10.230;2023-04-05T15:01:02;13.80;69.50
45765;DHT22;31474;45.332;10.230;2023-04-05T15:03:29;13.80;71.00
45765;DHT22;31474;45.332;10.230;2023-04-05T15:05:55;13.90;71.20
45765;DHT22;31474;45.332;10.230;2023-04-05T15:08:21;13.80;70.90
45765;DHT22;31474;45.332;10.230;2023-04-05T15:10:46;13.70;70.30
45765;DHT22;31474;45.332;10.230;2023-04-05T15:13:12;13.60;70.70
45765;DHT22;31474;45.332;10.230;2023-04-05T15:15:38;13.60;69.70
45765;DHT22;31474;45.332;10.230;2023-04-05T15:18:04;13.50;70.00
45765;DHT22;31474;45.332;10.230;2023-04-05T15:20:30;13.60;71.30
45765;DHT22;31474;45.332;10.230;2023-04-05T15:22:57;13.70;70.60
45765;DHT22;31474;45.332;10.230;2023-04-05T15:25:23;13.70;71.00
45765;DHT22;31474;45.332;10.230;2023-04-05T15:27:48;13.70;71.40
45765;DHT22;31474;45.332;10.230;2023-04-05T15:30:15;13.80;69.80
45765;DHT22;31474;45.332;10.230;2023-04-05T15:32:41;13.70;69.80
45765;DHT22;31474;45.332;10.230;2023-04-05T15:35:07;13.60;69.70
45765;DHT22;31474;45.332;10.230;2023-04-05T15:37:33;13.50;69.80
45765;DHT22;31474;45.332;10.230;2023-04-05T15:39:58;13.40;70.60
45765;DHT22;31474;45.332;10.230;2023-04-05T15:42:24;13.40;70.70
45765;DHT22;31474;45.332;10.230;2023-04-05T15:44:50;13.30;71.00
45765;DHT22;31474;45.332;10.230;2023-04-05T15:47:16;13.40;71.40
45765;DHT22;31474;45.332;10.230;2023-04-05T15:49:42;13.30;71.30